TNCC Airport Information

Runway Information
Runway 11 Length 11188 ft width 197 ft
Elevation 25 ft Threshold 2723 ft Heading 102
Runway 29 Length 11188 ft Width 197 ft
Elevation 29 ft Threshold 0 ft Heading 282
Airport Frequencies
Type APP Name APP Frequency 119.6 MHZ
Type MISC Name CATS SVC Frequency 131.8 MHZ
Type OPS Name DUTCH OPS Frequency 24.02 MHZ
Type POST Name IGUANA OPS Frequency 25 MHZ
Type TWR Name TWR Frequency 118.3 MHZ
Airport Navaids
Type TACAN Name Hato Frequency 134100 KHZ
Type VOR-DME Name Curacao Frequency 116700 KHZ
Airport Weather Information & NOTAM
ADDS - METARS form results

(1634 UTC 24 April 2019)
Data provider http://aviationweather.gov/metar/data/
 
METAR text: TNCC 241613Z COR 08009KT 050V110 9999 FEW020 29/23 Q1013 NOSIG
Conditions at: TNCC (HATO AIR CURACAO, VI) observed 1613 UTC 24 April 2019
Temperature: 29.0°C (84°F)
Dewpoint: 23.0°C (73°F) [RH = 70%]
Pressure (altimeter): 29.91 inches Hg (1013.0 mb)
Winds: from the E (80 degrees) at 10 MPH (9 knots; 4.6 m/s)
Visibility: 6 or more miles (10+ km)
Ceiling: at least 12,000 feet AGL
Clouds: few clouds at 2000 feet AGL
Weather: no significant weather observed at this time

METAR text: TNCC 241600Z AUTO 08009KT 050V110 9999 SCT018 29/23 Q1013
Conditions at: TNCC (HATO AIR CURACAO, VI) observed 1600 UTC 24 April 2019
Temperature: 29.0°C (84°F)
Dewpoint: 23.0°C (73°F) [RH = 70%]
Pressure (altimeter): 29.91 inches Hg (1013.0 mb)
Winds: from the E (80 degrees) at 10 MPH (9 knots; 4.6 m/s)
Visibility: 6 or more miles (10+ km)
Ceiling: at least 12,000 feet AGL
Clouds: scattered clouds at 1800 feet AGL
Weather: no significant weather observed at this time

Forecast for: TNCC (HATO AIR CURACAO, VI)
Text: TAF TNCC 241600Z 2418/2518 09011KT 9999 SCT020
Forecast period: 1800 UTC 24 April 2019 to 1800 UTC 25 April 2019
Forecast type: FROM: standard forecast or significant change
Winds: from the E (90 degrees) at 13 MPH (11 knots; 5.7 m/s)
Visibility: 6 or more miles 10+ km)
Ceiling: at least 12,000 feet AGL
Clouds: scattered clouds at 2000 feet AGL
Weather: no significant weather forecast for this period
Text: PROB30
Forecast period: 0600 to 1600 UTC 25 April 2019
Forecast type: TEMPORARY: The following changes expected for less than half the time period
Visibility: 5 miles (8 km)
Ceiling: 1500 feet AGL
Clouds: broken clouds at 1500 feet AGL
Weather: -SHRA  (light rain showers)